SHT15D EGJJ-EGLL
Flight info
| Callsign | SHT15D |
|---|---|
| Flight time | 1h 0m |
| Altitude | 23000 |
| Route | ORIST L982 ROXOG |
| Aircraft | A20N/M-SDE2E3FGHIRWXY/LB1 |
Departure
| Time | 2026-05-05 19:48 |
|---|---|
| Airport | Jersey Airport (EGJJ) |
Arrival
| Time | 2026-05-05 20:48 |
|---|---|
| Airport | London Heathrow Airport (EGLL) |
| Time | Latitude | Longitude | Altitude | Speed | Heading |
|---|---|---|---|---|---|
| 2026-05-05 19:30 | 49.20558 | -2.19699 | 284 ft | 0 kts | 174° |
| 2026-05-05 19:41 | 49.20563 | -2.19699 | 284 ft | 2 kts | 174° |
| 2026-05-05 19:41 | 49.20578 | -2.19702 | 285 ft | 2 kts | 174° |
| 2026-05-05 19:42 | 49.20592 | -2.19706 | 284 ft | 2 kts | 158° |
| 2026-05-05 19:42 | 49.20606 | -2.19717 | 286 ft | 2 kts | 130° |
| 2026-05-05 19:42 | 49.20611 | -2.19733 | 286 ft | 2 kts | 79° |
| 2026-05-05 19:42 | 49.20609 | -2.19747 | 286 ft | 0 kts | 85° |
| 2026-05-05 19:44 | 49.20609 | -2.19746 | 286 ft | 1 kts | 85° |
| 2026-05-05 19:45 | 49.20613 | -2.19719 | 287 ft | 4 kts | 72° |
| 2026-05-05 19:45 | 49.20639 | -2.19677 | 284 ft | 7 kts | 37° |
| 2026-05-05 19:45 | 49.20681 | -2.19620 | 284 ft | 9 kts | 55° |
| 2026-05-05 19:45 | 49.20701 | -2.19515 | 284 ft | 12 kts | 79° |
| 2026-05-05 19:46 | 49.20708 | -2.19382 | 284 ft | 14 kts | 97° |
| 2026-05-05 19:46 | 49.20683 | -2.19226 | 284 ft | 16 kts | 104° |
| 2026-05-05 19:46 | 49.20689 | -2.19046 | 284 ft | 18 kts | 83° |
| 2026-05-05 19:46 | 49.20705 | -2.18858 | 284 ft | 16 kts | 82° |
| 2026-05-05 19:47 | 49.20722 | -2.18675 | 287 ft | 18 kts | 81° |
| 2026-05-05 19:47 | 49.20737 | -2.18488 | 284 ft | 15 kts | 78° |
| 2026-05-05 19:47 | 49.20807 | -2.18385 | 284 ft | 15 kts | 29° |
| 2026-05-05 19:47 | 49.20887 | -2.18437 | 281 ft | 14 kts | 284° |
| 2026-05-05 19:48 | 49.20867 | -2.18756 | 283 ft | 67 kts | 263° |
| 2026-05-05 19:48 | 49.20772 | -2.19867 | 285 ft | 141 kts | 263° |
| 2026-05-05 19:48 | 49.20608 | -2.21565 | 704 ft | 166 kts | 264° |
| 2026-05-05 19:48 | 49.20491 | -2.22747 | 1225 ft | 171 kts | 266° |
| 2026-05-05 19:49 | 49.20341 | -2.24598 | 2047 ft | 179 kts | 268° |
| 2026-05-05 19:49 | 49.20197 | -2.26514 | 2878 ft | 184 kts | 268° |
| 2026-05-05 19:49 | 49.20001 | -2.29260 | 3614 ft | 209 kts | 271° |
| 2026-05-05 19:49 | 49.20316 | -2.31446 | 4129 ft | 216 kts | 305° |
| 2026-05-05 19:50 | 49.21383 | -2.33001 | 4876 ft | 214 kts | 338° |
| 2026-05-05 19:50 | 49.22801 | -2.33433 | 5781 ft | 209 kts | 7° |
| 2026-05-05 19:50 | 49.23760 | -2.33195 | 6324 ft | 213 kts | 12° |
| 2026-05-05 19:50 | 49.25226 | -2.32766 | 7133 ft | 217 kts | 12° |
| 2026-05-05 19:51 | 49.26726 | -2.32330 | 7911 ft | 224 kts | 11° |
| 2026-05-05 19:51 | 49.28325 | -2.31874 | 8390 ft | 243 kts | 11° |
| 2026-05-05 19:51 | 49.30016 | -2.31401 | 9131 ft | 249 kts | 11° |
| 2026-05-05 19:51 | 49.32299 | -2.30768 | 10204 ft | 254 kts | 10° |
| 2026-05-05 19:52 | 49.33454 | -2.30449 | 10694 ft | 256 kts | 10° |
| 2026-05-05 19:52 | 49.35245 | -2.29954 | 11479 ft | 259 kts | 10° |
| 2026-05-05 19:52 | 49.37008 | -2.29466 | 12206 ft | 263 kts | 10° |
| 2026-05-05 19:52 | 49.38820 | -2.28964 | 12892 ft | 270 kts | 10° |
| 2026-05-05 19:53 | 49.40749 | -2.28427 | 13234 ft | 290 kts | 10° |
| 2026-05-05 19:53 | 49.42746 | -2.27871 | 14004 ft | 295 kts | 10° |
| 2026-05-05 19:53 | 49.44781 | -2.27304 | 14763 ft | 298 kts | 11° |
| 2026-05-05 19:53 | 49.46830 | -2.26733 | 15508 ft | 302 kts | 11° |
| 2026-05-05 19:54 | 49.48907 | -2.26154 | 16236 ft | 305 kts | 11° |
| 2026-05-05 19:54 | 49.51016 | -2.25565 | 16969 ft | 310 kts | 11° |
| 2026-05-05 19:54 | 49.53145 | -2.24970 | 17693 ft | 314 kts | 11° |
| 2026-05-05 19:54 | 49.55309 | -2.24364 | 18385 ft | 317 kts | 11° |
| 2026-05-05 19:55 | 49.57489 | -2.23752 | 19019 ft | 321 kts | 11° |
| 2026-05-05 19:55 | 49.59657 | -2.23142 | 19641 ft | 324 kts | 11° |
| 2026-05-05 19:55 | 49.61888 | -2.22514 | 20266 ft | 327 kts | 11° |
| 2026-05-05 19:55 | 49.64142 | -2.21879 | 20893 ft | 330 kts | 11° |
| 2026-05-05 19:56 | 49.66410 | -2.21239 | 21495 ft | 333 kts | 11° |
| 2026-05-05 19:56 | 49.68691 | -2.20570 | 22112 ft | 336 kts | 14° |
| 2026-05-05 19:56 | 49.70914 | -2.19380 | 22677 ft | 340 kts | 25° |
| 2026-05-05 19:56 | 49.72954 | -2.17528 | 22900 ft | 344 kts | 36° |
| 2026-05-05 19:57 | 49.74871 | -2.15183 | 22945 ft | 360 kts | 38° |
| 2026-05-05 19:57 | 49.76888 | -2.12716 | 22941 ft | 380 kts | 38° |
| 2026-05-05 19:57 | 49.79018 | -2.10125 | 22940 ft | 396 kts | 38° |
| 2026-05-05 19:57 | 49.81193 | -2.07482 | 22937 ft | 396 kts | 38° |
| 2026-05-05 19:58 | 49.83356 | -2.04851 | 22934 ft | 396 kts | 38° |
| 2026-05-05 19:58 | 49.85522 | -2.02213 | 22937 ft | 396 kts | 38° |
| 2026-05-05 19:58 | 49.87689 | -1.99572 | 22940 ft | 396 kts | 38° |
| 2026-05-05 19:58 | 49.89829 | -1.96959 | 22939 ft | 396 kts | 38° |
| 2026-05-05 19:59 | 49.91991 | -1.94317 | 22939 ft | 397 kts | 38° |
| 2026-05-05 19:59 | 49.93776 | -1.92133 | 22937 ft | 397 kts | 38° |
| 2026-05-05 19:59 | 49.95946 | -1.89475 | 22933 ft | 397 kts | 38° |
| 2026-05-05 19:59 | 49.98117 | -1.86813 | 22936 ft | 397 kts | 38° |
| 2026-05-05 20:00 | 50.00366 | -1.84324 | 22937 ft | 397 kts | 31° |
| 2026-05-05 20:00 | 50.02791 | -1.82293 | 22939 ft | 397 kts | 26° |
| 2026-05-05 20:00 | 50.05264 | -1.80358 | 22938 ft | 397 kts | 26° |
| 2026-05-05 20:00 | 50.07728 | -1.78407 | 22940 ft | 397 kts | 26° |
| 2026-05-05 20:01 | 50.10192 | -1.76449 | 22938 ft | 398 kts | 27° |
| 2026-05-05 20:01 | 50.12548 | -1.74290 | 22938 ft | 398 kts | 34° |
| 2026-05-05 20:01 | 50.14735 | -1.71657 | 22935 ft | 399 kts | 39° |
| 2026-05-05 20:01 | 50.16893 | -1.68837 | 22923 ft | 399 kts | 39° |
| 2026-05-05 20:02 | 50.19001 | -1.66110 | 22936 ft | 399 kts | 39° |
| 2026-05-05 20:02 | 50.21140 | -1.63347 | 22942 ft | 399 kts | 39° |
| 2026-05-05 20:02 | 50.23278 | -1.60580 | 22926 ft | 399 kts | 39° |
| 2026-05-05 20:02 | 50.25497 | -1.57967 | 22942 ft | 399 kts | 32° |
| 2026-05-05 20:03 | 50.27920 | -1.55878 | 22942 ft | 398 kts | 24° |
| 2026-05-05 20:03 | 50.30502 | -1.54337 | 22941 ft | 398 kts | 16° |
| 2026-05-05 20:03 | 50.33148 | -1.53067 | 22942 ft | 398 kts | 17° |
| 2026-05-05 20:03 | 50.35794 | -1.51770 | 22942 ft | 398 kts | 17° |
| 2026-05-05 20:04 | 50.38385 | -1.50492 | 22941 ft | 398 kts | 17° |
| 2026-05-05 20:04 | 50.41018 | -1.49193 | 22941 ft | 398 kts | 17° |
| 2026-05-05 20:04 | 50.43667 | -1.47887 | 22943 ft | 399 kts | 17° |
| 2026-05-05 20:04 | 50.46316 | -1.46582 | 22944 ft | 399 kts | 17° |
| 2026-05-05 20:05 | 50.48968 | -1.45275 | 22934 ft | 399 kts | 17° |
| 2026-05-05 20:05 | 50.51614 | -1.43970 | 22934 ft | 399 kts | 17° |
| 2026-05-05 20:05 | 50.54161 | -1.42470 | 22953 ft | 400 kts | 24° |
| 2026-05-05 20:05 | 50.56644 | -1.40438 | 22951 ft | 401 kts | 28° |
| 2026-05-05 20:06 | 50.59050 | -1.38356 | 22936 ft | 401 kts | 27° |
| 2026-05-05 20:06 | 50.61505 | -1.36256 | 22939 ft | 401 kts | 27° |
| 2026-05-05 20:06 | 50.63950 | -1.34164 | 22954 ft | 401 kts | 27° |
| 2026-05-05 20:06 | 50.66404 | -1.32059 | 22865 ft | 401 kts | 27° |
| 2026-05-05 20:07 | 50.68857 | -1.29950 | 22365 ft | 401 kts | 27° |
| 2026-05-05 20:07 | 50.71319 | -1.27830 | 21526 ft | 406 kts | 28° |
| 2026-05-05 20:07 | 50.73807 | -1.25683 | 20601 ft | 411 kts | 28° |
| 2026-05-05 20:07 | 50.76303 | -1.23497 | 19922 ft | 409 kts | 30° |
| 2026-05-05 20:08 | 50.78645 | -1.21099 | 19320 ft | 404 kts | 33° |
| 2026-05-05 20:08 | 50.81025 | -1.18639 | 18710 ft | 400 kts | 33° |
| 2026-05-05 20:08 | 50.83310 | -1.16289 | 18114 ft | 396 kts | 33° |
| 2026-05-05 20:08 | 50.85617 | -1.13914 | 17440 ft | 393 kts | 33° |
| 2026-05-05 20:09 | 50.87884 | -1.11574 | 16780 ft | 389 kts | 33° |
| 2026-05-05 20:09 | 50.90122 | -1.09260 | 16178 ft | 384 kts | 33° |
| 2026-05-05 20:09 | 50.92390 | -1.06911 | 15140 ft | 390 kts | 33° |
| 2026-05-05 20:09 | 50.94676 | -1.04541 | 14184 ft | 395 kts | 33° |
| 2026-05-05 20:10 | 50.96969 | -1.02160 | 13737 ft | 392 kts | 33° |
| 2026-05-05 20:10 | 50.99219 | -0.99795 | 13414 ft | 382 kts | 35° |
| 2026-05-05 20:10 | 51.01227 | -0.97147 | 12804 ft | 379 kts | 44° |
| 2026-05-05 20:10 | 51.02974 | -0.94097 | 12463 ft | 367 kts | 48° |
| 2026-05-05 20:11 | 51.04635 | -0.91118 | 12168 ft | 355 kts | 47° |
| 2026-05-05 20:11 | 51.06248 | -0.88258 | 12013 ft | 340 kts | 47° |
| 2026-05-05 20:11 | 51.07790 | -0.85524 | 11876 ft | 326 kts | 47° |
| 2026-05-05 20:11 | 51.09276 | -0.82882 | 11746 ft | 312 kts | 47° |
| 2026-05-05 20:12 | 51.10693 | -0.80359 | 11589 ft | 300 kts | 47° |
| 2026-05-05 20:12 | 51.12071 | -0.77899 | 11244 ft | 296 kts | 47° |
| 2026-05-05 20:12 | 51.13416 | -0.75494 | 10852 ft | 295 kts | 47° |
| 2026-05-05 20:12 | 51.14770 | -0.73069 | 10460 ft | 293 kts | 47° |
| 2026-05-05 20:13 | 51.16121 | -0.70647 | 10076 ft | 291 kts | 46° |
| 2026-05-05 20:13 | 51.17458 | -0.68248 | 9677 ft | 289 kts | 46° |
| 2026-05-05 20:13 | 51.18787 | -0.65861 | 9303 ft | 285 kts | 46° |
| 2026-05-05 20:13 | 51.20085 | -0.63528 | 9037 ft | 279 kts | 46° |
| 2026-05-05 20:14 | 51.21372 | -0.61214 | 8780 ft | 281 kts | 46° |
| 2026-05-05 20:14 | 51.22661 | -0.58894 | 8536 ft | 278 kts | 47° |
| 2026-05-05 20:14 | 51.23934 | -0.56598 | 8280 ft | 277 kts | 47° |
| 2026-05-05 20:14 | 51.25205 | -0.54305 | 8103 ft | 270 kts | 47° |
| 2026-05-05 20:15 | 51.26425 | -0.52099 | 7997 ft | 259 kts | 46° |
| 2026-05-05 20:15 | 51.27588 | -0.49995 | 7895 ft | 247 kts | 46° |
| 2026-05-05 20:15 | 51.28686 | -0.48009 | 7738 ft | 239 kts | 46° |
| 2026-05-05 20:15 | 51.29794 | -0.46006 | 7441 ft | 236 kts | 46° |
| 2026-05-05 20:16 | 51.30865 | -0.44058 | 7145 ft | 235 kts | 49° |
| 2026-05-05 20:16 | 51.31535 | -0.41749 | 7023 ft | 230 kts | 81° |
| 2026-05-05 20:16 | 51.31476 | -0.39121 | 7020 ft | 240 kts | 96° |
| 2026-05-05 20:16 | 51.31142 | -0.36533 | 7021 ft | 238 kts | 106° |
| 2026-05-05 20:17 | 51.30439 | -0.34138 | 7025 ft | 242 kts | 122° |
| 2026-05-05 20:17 | 51.29348 | -0.32075 | 7002 ft | 243 kts | 135° |
| 2026-05-05 20:17 | 51.28013 | -0.30440 | 6999 ft | 244 kts | 155° |
| 2026-05-05 20:17 | 51.26355 | -0.29935 | 7001 ft | 246 kts | 187° |
| 2026-05-05 20:18 | 51.24785 | -0.30824 | 7003 ft | 244 kts | 218° |
| 2026-05-05 20:18 | 51.23734 | -0.32832 | 7005 ft | 239 kts | 250° |
| 2026-05-05 20:18 | 51.23497 | -0.35413 | 7004 ft | 234 kts | 282° |
| 2026-05-05 20:18 | 51.24113 | -0.37753 | 7000 ft | 229 kts | 310° |
| 2026-05-05 20:19 | 51.25305 | -0.39404 | 7004 ft | 226 kts | 332° |
| 2026-05-05 20:19 | 51.26657 | -0.40680 | 7001 ft | 226 kts | 330° |
| 2026-05-05 20:19 | 51.27986 | -0.42019 | 7022 ft | 227 kts | 328° |
| 2026-05-05 20:19 | 51.29306 | -0.43391 | 7021 ft | 226 kts | 328° |
| 2026-05-05 20:20 | 51.30614 | -0.44762 | 7022 ft | 226 kts | 328° |
| 2026-05-05 20:20 | 51.32114 | -0.45824 | 7032 ft | 255 kts | 351° |
| 2026-05-05 20:20 | 51.33931 | -0.45594 | 7017 ft | 268 kts | 19° |
| 2026-05-05 20:20 | 51.35556 | -0.44173 | 6988 ft | 264 kts | 27° |
| 2026-05-05 20:21 | 51.37255 | -0.43424 | 6908 ft | 253 kts | 0° |
| 2026-05-05 20:21 | 51.38925 | -0.44057 | 6812 ft | 241 kts | 331° |
| 2026-05-05 20:21 | 51.40102 | -0.45831 | 6615 ft | 236 kts | 302° |
| 2026-05-05 20:21 | 51.40583 | -0.48338 | 6272 ft | 238 kts | 278° |
| 2026-05-05 20:22 | 51.40732 | -0.50975 | 5933 ft | 237 kts | 277° |
| 2026-05-05 20:22 | 51.40867 | -0.53560 | 5754 ft | 227 kts | 277° |
| 2026-05-05 20:22 | 51.40990 | -0.56011 | 5644 ft | 216 kts | 277° |
| 2026-05-05 20:22 | 51.41107 | -0.58347 | 5571 ft | 202 kts | 277° |
| 2026-05-05 20:23 | 51.41211 | -0.60508 | 5358 ft | 193 kts | 277° |
| 2026-05-05 20:23 | 51.41315 | -0.62658 | 4964 ft | 194 kts | 277° |
| 2026-05-05 20:23 | 51.41417 | -0.64806 | 4590 ft | 194 kts | 277° |
| 2026-05-05 20:23 | 51.41514 | -0.66938 | 4221 ft | 194 kts | 277° |
| 2026-05-05 20:24 | 51.41683 | -0.69066 | 3851 ft | 192 kts | 285° |
| 2026-05-05 20:24 | 51.42285 | -0.70900 | 3459 ft | 187 kts | 313° |
| 2026-05-05 20:24 | 51.43147 | -0.72476 | 3127 ft | 185 kts | 315° |
| 2026-05-05 20:24 | 51.44002 | -0.73995 | 3027 ft | 187 kts | 320° |
| 2026-05-05 20:25 | 51.45032 | -0.75217 | 3017 ft | 181 kts | 341° |
| 2026-05-05 20:25 | 51.46226 | -0.75204 | 2951 ft | 176 kts | 26° |
| 2026-05-05 20:25 | 51.47109 | -0.73885 | 2870 ft | 177 kts | 59° |
| 2026-05-05 20:25 | 51.47518 | -0.72044 | 2811 ft | 179 kts | 77° |
| 2026-05-05 20:26 | 51.47647 | -0.70058 | 2711 ft | 180 kts | 85° |
| 2026-05-05 20:26 | 51.47676 | -0.68051 | 2509 ft | 180 kts | 88° |
| 2026-05-05 20:26 | 51.47684 | -0.66064 | 2285 ft | 178 kts | 88° |
| 2026-05-05 20:26 | 51.47693 | -0.64071 | 2053 ft | 178 kts | 88° |
| 2026-05-05 20:27 | 51.47698 | -0.62156 | 1799 ft | 165 kts | 88° |
| 2026-05-05 20:27 | 51.47702 | -0.60374 | 1485 ft | 156 kts | 88° |
| 2026-05-05 20:27 | 51.47707 | -0.58711 | 1307 ft | 141 kts | 89° |
| 2026-05-05 20:27 | 51.47702 | -0.57129 | 1197 ft | 143 kts | 88° |
| 2026-05-05 20:28 | 51.47715 | -0.55542 | 996 ft | 142 kts | 87° |
| 2026-05-05 20:28 | 51.47739 | -0.53962 | 803 ft | 143 kts | 88° |
| 2026-05-05 20:28 | 51.47706 | -0.52371 | 613 ft | 142 kts | 87° |
| 2026-05-05 20:28 | 51.47730 | -0.50820 | 398 ft | 143 kts | 86° |
| 2026-05-05 20:29 | 51.47737 | -0.49269 | 241 ft | 138 kts | 86° |
| 2026-05-05 20:29 | 51.47746 | -0.47702 | 113 ft | 140 kts | 86° |
| 2026-05-05 20:29 | 51.47752 | -0.45962 | 136 ft | 181 kts | 86° |
| 2026-05-05 20:29 | 51.47780 | -0.43835 | 755 ft | 185 kts | 86° |
| 2026-05-05 20:30 | 51.47831 | -0.41818 | 1571 ft | 178 kts | 86° |
| 2026-05-05 20:30 | 51.47908 | -0.39862 | 2298 ft | 178 kts | 84° |
| 2026-05-05 20:30 | 51.48010 | -0.37786 | 2647 ft | 194 kts | 84° |
| 2026-05-05 20:30 | 51.48094 | -0.35523 | 2947 ft | 210 kts | 85° |
| 2026-05-05 20:31 | 51.48221 | -0.33174 | 2997 ft | 211 kts | 72° |
| 2026-05-05 20:31 | 51.48972 | -0.31229 | 3025 ft | 211 kts | 39° |
| 2026-05-05 20:31 | 51.50303 | -0.30292 | 3034 ft | 213 kts | 6° |
| 2026-05-05 20:31 | 51.51748 | -0.30742 | 3026 ft | 218 kts | 334° |
| 2026-05-05 20:32 | 51.52904 | -0.32327 | 3031 ft | 222 kts | 312° |
| 2026-05-05 20:32 | 51.53863 | -0.34298 | 3028 ft | 224 kts | 309° |
| 2026-05-05 20:32 | 51.54785 | -0.36305 | 3029 ft | 223 kts | 309° |
| 2026-05-05 20:32 | 51.55717 | -0.38308 | 3028 ft | 224 kts | 309° |
| 2026-05-05 20:33 | 51.56660 | -0.40288 | 3026 ft | 223 kts | 310° |
| 2026-05-05 20:33 | 51.57604 | -0.42230 | 3032 ft | 223 kts | 311° |
| 2026-05-05 20:33 | 51.58569 | -0.44171 | 3027 ft | 222 kts | 311° |
| 2026-05-05 20:33 | 51.59549 | -0.46102 | 3029 ft | 223 kts | 312° |
| 2026-05-05 20:34 | 51.60523 | -0.48044 | 3025 ft | 223 kts | 310° |
| 2026-05-05 20:34 | 51.61462 | -0.50011 | 3026 ft | 222 kts | 310° |
| 2026-05-05 20:34 | 51.62389 | -0.51994 | 3024 ft | 223 kts | 306° |
| 2026-05-05 20:34 | 51.62912 | -0.54344 | 3027 ft | 228 kts | 274° |
| 2026-05-05 20:35 | 51.62576 | -0.56830 | 3025 ft | 231 kts | 240° |
| 2026-05-05 20:35 | 51.61463 | -0.58647 | 3034 ft | 232 kts | 206° |
| 2026-05-05 20:35 | 51.59954 | -0.59218 | 3031 ft | 228 kts | 172° |
| 2026-05-05 20:35 | 51.58490 | -0.58405 | 3025 ft | 222 kts | 140° |
| 2026-05-05 20:36 | 51.57534 | -0.56552 | 3031 ft | 215 kts | 110° |
| 2026-05-05 20:36 | 51.57052 | -0.54281 | 3027 ft | 214 kts | 105° |
| 2026-05-05 20:36 | 51.56583 | -0.52017 | 3031 ft | 214 kts | 106° |
| 2026-05-05 20:36 | 51.56099 | -0.49752 | 3031 ft | 214 kts | 106° |
| 2026-05-05 20:37 | 51.55613 | -0.47500 | 3025 ft | 214 kts | 106° |
| 2026-05-05 20:37 | 51.55130 | -0.45253 | 3028 ft | 214 kts | 104° |
| 2026-05-05 20:37 | 51.55017 | -0.42914 | 3032 ft | 211 kts | 76° |
| 2026-05-05 20:37 | 51.55648 | -0.40829 | 3035 ft | 210 kts | 47° |
| 2026-05-05 20:38 | 51.56834 | -0.39568 | 3023 ft | 210 kts | 18° |
| 2026-05-05 20:38 | 51.58292 | -0.39450 | 3025 ft | 214 kts | 348° |
| 2026-05-05 20:38 | 51.59609 | -0.40593 | 3028 ft | 222 kts | 317° |
| 2026-05-05 20:38 | 51.60375 | -0.42756 | 3028 ft | 227 kts | 284° |
| 2026-05-05 20:39 | 51.60303 | -0.45273 | 3026 ft | 229 kts | 250° |
| 2026-05-05 20:39 | 51.59399 | -0.47361 | 3028 ft | 233 kts | 216° |
| 2026-05-05 20:39 | 51.57949 | -0.48332 | 3029 ft | 226 kts | 181° |
| 2026-05-05 20:39 | 51.56435 | -0.47859 | 3026 ft | 222 kts | 147° |
| 2026-05-05 20:40 | 51.55178 | -0.46299 | 3029 ft | 239 kts | 133° |
| 2026-05-05 20:40 | 51.54000 | -0.44421 | 3024 ft | 238 kts | 134° |
| 2026-05-05 20:40 | 51.52577 | -0.43151 | 3029 ft | 243 kts | 164° |
| 2026-05-05 20:40 | 51.50858 | -0.43165 | 3028 ft | 248 kts | 194° |
| 2026-05-05 20:41 | 51.49438 | -0.44452 | 3025 ft | 233 kts | 226° |
| 2026-05-05 20:41 | 51.48646 | -0.46648 | 3039 ft | 230 kts | 254° |
| 2026-05-05 20:41 | 51.48538 | -0.49156 | 3033 ft | 225 kts | 284° |
| 2026-05-05 20:41 | 51.49035 | -0.51540 | 3030 ft | 224 kts | 294° |
| 2026-05-05 20:42 | 51.49623 | -0.53835 | 3026 ft | 222 kts | 295° |
| 2026-05-05 20:42 | 51.50216 | -0.56133 | 3031 ft | 224 kts | 295° |
| 2026-05-05 20:42 | 51.50810 | -0.58448 | 3027 ft | 224 kts | 295° |
| 2026-05-05 20:42 | 51.51431 | -0.60739 | 3022 ft | 221 kts | 304° |
| 2026-05-05 20:43 | 51.52452 | -0.62491 | 3030 ft | 220 kts | 322° |
| 2026-05-05 20:43 | 51.53604 | -0.64050 | 2988 ft | 213 kts | 323° |
| 2026-05-05 20:43 | 51.54610 | -0.65723 | 2877 ft | 206 kts | 300° |
| 2026-05-05 20:43 | 51.54897 | -0.67923 | 2687 ft | 204 kts | 263° |
| 2026-05-05 20:44 | 51.54332 | -0.69977 | 2348 ft | 205 kts | 225° |
| 2026-05-05 20:44 | 51.53171 | -0.71233 | 2162 ft | 203 kts | 203° |
| 2026-05-05 20:44 | 51.51790 | -0.71536 | 2272 ft | 202 kts | 163° |
| 2026-05-05 20:44 | 51.50614 | -0.70402 | 2791 ft | 198 kts | 126° |
| 2026-05-05 20:45 | 51.49670 | -0.66885 | 3014 ft | 150 kts | 105° |
| 2026-05-05 20:45 | 51.49327 | -0.65344 | 2949 ft | 150 kts | 108° |
| 2026-05-05 20:45 | 51.48899 | -0.63796 | 2535 ft | 155 kts | 110° |
| 2026-05-05 20:46 | 51.48467 | -0.62178 | 2060 ft | 159 kts | 108° |
| 2026-05-05 20:46 | 51.48147 | -0.60512 | 1637 ft | 158 kts | 103° |
| 2026-05-05 20:46 | 51.47891 | -0.58858 | 1411 ft | 147 kts | 100° |
| 2026-05-05 20:46 | 51.47727 | -0.57307 | 1202 ft | 138 kts | 93° |
| 2026-05-05 20:47 | 51.47702 | -0.55732 | 967 ft | 142 kts | 86° |
| 2026-05-05 20:47 | 51.47711 | -0.54180 | 775 ft | 142 kts | 87° |
| 2026-05-05 20:47 | 51.47719 | -0.52578 | 605 ft | 142 kts | 87° |
| 2026-05-05 20:47 | 51.47725 | -0.51035 | 417 ft | 141 kts | 86° |
| 2026-05-05 20:48 | 51.47738 | -0.49481 | 238 ft | 140 kts | 85° |
| 2026-05-05 20:48 | 51.47746 | -0.47927 | 96 ft | 137 kts | 86° |
| 2026-05-05 20:48 | 51.47761 | -0.46600 | 89 ft | 91 kts | 90° |
| 2026-05-05 20:48 | 51.47760 | -0.45911 | 87 ft | 35 kts | 89° |
| 2026-05-05 20:49 | 51.47759 | -0.45578 | 86 ft | 22 kts | 91° |
| 2026-05-05 20:49 | 51.47722 | -0.45481 | 87 ft | 8 kts | 152° |
| 2026-05-05 20:49 | 51.47660 | -0.45468 | 86 ft | 10 kts | 182° |
| 2026-05-05 20:49 | 51.47633 | -0.45468 | 86 ft | 0 kts | 178° |
| 2026-05-05 20:50 | 51.47621 | -0.45468 | 86 ft | 4 kts | 178° |
| 2026-05-05 20:50 | 51.47598 | -0.45527 | 89 ft | 23 kts | 261° |
| 2026-05-05 20:50 | 51.47593 | -0.46148 | 86 ft | 66 kts | 271° |
| 2026-05-05 20:51 | 51.47587 | -0.46875 | 89 ft | 64 kts | 271° |
| 2026-05-05 20:51 | 51.47582 | -0.47572 | 91 ft | 61 kts | 268° |
| 2026-05-05 20:51 | 51.47575 | -0.48243 | 86 ft | 57 kts | 270° |
| 2026-05-05 20:51 | 51.47556 | -0.48491 | 92 ft | 4 kts | 180° |
| 2026-05-05 20:52 | 51.47469 | -0.48480 | 87 ft | 42 kts | 180° |
| 2026-05-05 20:52 | 51.47136 | -0.48474 | 86 ft | 49 kts | 179° |
| 2026-05-05 20:52 | 51.46792 | -0.48467 | 86 ft | 39 kts | 178° |
| 2026-05-05 20:52 | 51.46735 | -0.48547 | 89 ft | 11 kts | 275° |